Time;durP1;ratioP1;P1;durP2;ratioP2;P2;SDS_P1;SDS_P2;PMS_P1;PMS_P2;Temp;Humidity;BMP_temperature;BMP_pressure;BME280_temperature;BME280_humidity;BME280_pressure;Samples;Min_cycle;Max_cycle;Signal;HPM_P1;HPM_P2
2022/07/25 00:02:25;;;;;;;9.95;9.05;;;29.20;50.80;;;;;;4616259;60;21503;-30
2022/07/25 00:07:26;;;;;;;9.95;9.05;;;29.20;50.90;;;;;;4644179;56;21032;-29
2022/07/25 00:12:27;;;;;;;9.25;8.45;;;29.20;50.90;;;;;;4615235;56;21533;-29
2022/07/25 00:17:28;;;;;;;9.50;8.65;;;29.20;50.80;;;;;;4723984;56;21041;-30
2022/07/25 00:22:29;;;;;;;9.70;8.80;;;29.20;50.90;;;;;;4679235;56;21021;-29
2022/07/25 00:27:29;;;;;;;9.15;8.35;;;29.20;50.90;;;;;;4884082;56;21049;-30
2022/07/25 00:32:30;;;;;;;9.30;8.50;;;29.20;51.00;;;;;;4722423;56;21575;-28
2022/07/25 00:37:31;;;;;;;9.77;8.80;;;29.20;51.00;;;;;;4615274;60;21045;-29
2022/07/25 00:42:32;;;;;;;9.48;8.60;;;29.20;51.00;;;;;;4833324;56;21033;-29
2022/07/25 00:47:33;;;;;;;9.65;8.75;;;29.20;51.00;;;;;;4615166;60;21028;-31
2022/07/25 00:52:34;;;;;;;9.98;9.07;;;29.20;51.10;;;;;;4662099;56;21455;-34
2022/07/25 00:57:34;;;;;;;9.38;8.57;;;29.20;51.10;;;;;;4736937;56;21040;-33
2022/07/25 01:02:36;;;;;;;9.43;8.52;;;29.20;51.20;;;;;;4615426;60;21013;-33
2022/07/25 01:07:37;;;;;;;9.60;8.70;;;29.20;51.10;;;;;;4766511;56;21088;-32
2022/07/25 01:12:50;;;;;;;9.63;8.82;;;29.20;51.10;;;;;;4615676;60;21572;-31
2022/07/25 01:17:52;;;;;;;9.48;8.68;;;29.20;51.10;;;;;;4767844;56;21128;-30
2022/07/25 01:22:53;;;;;;;9.88;8.98;;;29.20;51.20;;;;;;4740192;56;21008;-30
2022/07/25 01:27:54;;;;;;;8.57;7.87;;;29.20;51.20;;;;;;4615462;60;21136;-28
2022/07/25 01:32:55;;;;;;;9.00;8.20;;;29.20;51.40;;;;;;4935245;56;21008;-30
2022/07/25 01:37:56;;;;;;;8.57;7.87;;;29.20;51.80;;;;;;4821498;56;21036;-33
2022/07/25 01:42:57;;;;;;;8.82;8.13;;;29.20;51.40;;;;;;4743349;56;21052;-30
2022/07/25 01:47:57;;;;;;;9.05;8.25;;;29.20;51.40;;;;;;4831134;56;21561;-30
2022/07/25 01:52:58;;;;;;;9.23;8.43;;;29.20;51.40;;;;;;4686075;56;20992;-29
2022/07/25 01:57:59;;;;;;;8.88;8.07;;;29.20;51.40;;;;;;4946469;56;21016;-29
2022/07/25 02:08:19;;;;;;;9.05;8.23;;;29.20;51.60;;;;;;4615053;56;21095;-32
2022/07/25 02:13:20;;;;;;;8.73;7.93;;;29.20;51.60;;;;;;4651360;56;21004;-34
2022/07/25 02:18:21;;;;;;;9.48;8.57;;;29.20;51.60;;;;;;4678599;56;21064;-34
2022/07/25 02:23:22;;;;;;;8.60;7.90;;;29.20;51.80;;;;;;4769239;56;21072;-33
2022/07/25 02:28:23;;;;;;;8.32;7.62;;;29.20;51.60;;;;;;4633127;56;21008;-36
2022/07/25 02:33:23;;;;;;;8.70;8.00;;;29.20;51.80;;;;;;4764160;56;21012;-34
2022/07/25 02:38:25;;;;;;;8.63;7.85;;;29.10;51.70;;;;;;4816337;56;21028;-30
2022/07/25 02:43:25;;;;;;;9.20;8.30;;;29.20;51.60;;;;;;4633583;56;21522;-30
2022/07/25 02:48:26;;;;;;;8.30;7.60;;;29.10;51.60;;;;;;4630998;56;21084;-29
2022/07/25 02:53:27;;;;;;;8.38;7.57;;;29.20;51.60;;;;;;4848090;56;21060;-30
2022/07/25 02:58:28;;;;;;;8.43;7.62;;;29.20;51.60;;;;;;4625470;56;21037;-31
2022/07/25 03:03:29;;;;;;;8.98;8.05;;;29.20;51.60;;;;;;4615387;57;21064;-34
2022/07/25 03:08:30;;;;;;;8.68;7.97;;;29.10;51.40;;;;;;4674175;56;21012;-33
2022/07/25 03:13:32;;;;;;;8.65;7.87;;;29.10;51.40;;;;;;4636153;56;21451;-32
2022/07/25 03:18:33;;;;;;;8.90;8.00;;;29.10;51.40;;;;;;4724501;56;21617;-32
2022/07/25 03:23:33;;;;;;;9.20;8.40;;;29.10;51.30;;;;;;4646733;56;21005;-31
2022/07/25 03:28:35;;;;;;;9.02;8.02;;;29.10;51.40;;;;;;4897971;56;21048;-31
2022/07/25 03:33:35;;;;;;;8.50;7.80;;;29.20;51.30;;;;;;4743861;56;21012;-30
2022/07/25 03:38:36;;;;;;;8.70;7.80;;;29.10;51.30;;;;;;4766686;56;21012;-32
2022/07/25 03:43:37;;;;;;;8.85;7.95;;;29.10;51.20;;;;;;4681273;56;21482;-30
2022/07/25 03:48:38;;;;;;;8.88;7.97;;;29.10;51.30;;;;;;4700935;56;21479;-32
2022/07/25 03:58:58;;;;;;;8.90;8.20;;;29.10;51.20;;;;;;4614411;56;21108;-32
2022/07/25 04:04:00;;;;;;;9.00;8.00;;;29.10;51.20;;;;;;4642988;56;21467;-34
2022/07/25 04:09:00;;;;;;;8.45;7.50;;;29.10;51.20;;;;;;4615534;56;21009;-30
2022/07/25 04:14:02;;;;;;;8.13;7.45;;;29.10;51.20;;;;;;4615944;56;21004;-30
2022/07/25 04:19:04;;;;;;;8.43;7.72;;;29.10;51.00;;;;;;4757033;56;21511;-34
2022/07/25 04:24:05;;;;;;;9.57;8.13;;;29.10;50.90;;;;;;4645526;56;21538;-33
2022/07/25 04:29:06;;;;;;;9.55;8.65;;;29.10;51.00;;;;;;4658574;56;21071;-33
2022/07/25 04:34:07;;;;;;;8.23;7.53;;;29.10;50.90;;;;;;4622057;56;21550;-30
2022/07/25 04:39:08;;;;;;;8.20;7.43;;;29.10;50.80;;;;;;4615115;57;21028;-37
2022/07/25 04:44:08;;;;;;;8.50;7.60;;;29.10;50.80;;;;;;4685402;56;21024;-32
2022/07/25 04:49:09;;;;;;;9.40;7.95;;;29.00;50.70;;;;;;4730283;56;21079;-29
2022/07/25 04:54:10;;;;;;;8.52;7.72;;;29.00;50.80;;;;;;4713470;56;21036;-31
2022/07/25 04:59:11;;;;;;;9.00;8.05;;;29.10;50.80;;;;;;4690216;56;21020;-29
2022/07/25 05:04:12;;;;;;;9.10;8.20;;;29.00;50.80;;;;;;4665466;56;21073;-32
2022/07/25 05:09:12;;;;;;;9.05;8.15;;;29.00;50.70;;;;;;4786114;56;21510;-30
2022/07/25 05:14:13;;;;;;;8.70;7.95;;;29.00;50.70;;;;;;4708360;56;21537;-33
2022/07/25 05:19:14;;;;;;;8.60;7.80;;;29.10;50.70;;;;;;4680119;56;21141;-33
2022/07/25 05:24:15;;;;;;;8.90;8.07;;;29.10;50.80;;;;;;4719390;56;21036;-33
2022/07/25 05:29:15;;;;;;;8.95;8.15;;;29.10;50.70;;;;;;4659401;56;21497;-31
2022/07/25 05:34:16;;;;;;;9.20;8.30;;;29.00;50.60;;;;;;4615597;60;21482;-30
2022/07/25 05:39:17;;;;;;;9.88;8.98;;;29.00;50.70;;;;;;4753605;56;21088;-30
2022/07/25 05:44:18;;;;;;;9.70;8.77;;;29.00;50.70;;;;;;4615189;60;21594;-31
2022/07/25 05:49:19;;;;;;;12.13;9.15;;;29.00;50.50;;;;;;4615215;60;21555;-32
2022/07/25 05:54:19;;;;;;;10.00;9.00;;;29.00;50.90;;;;;;4638263;56;21024;-36
2022/07/25 05:59:20;;;;;;;9.70;8.70;;;29.00;50.60;;;;;;4651389;56;21027;-31
2022/07/25 06:04:21;;;;;;;10.23;8.80;;;29.00;50.60;;;;;;4772967;56;21079;-32
2022/07/25 06:09:22;;;;;;;10.98;9.88;;;29.00;50.60;;;;;;4756359;56;21506;-31
2022/07/25 06:14:23;;;;;;;11.30;9.82;;;29.00;50.70;;;;;;4845596;56;21036;-34
2022/07/25 06:19:24;;;;;;;10.82;9.73;;;29.00;50.60;;;;;;4630094;56;21575;-31
2022/07/25 06:24:25;;;;;;;11.38;10.23;;;29.00;50.70;;;;;;4851306;56;21029;-32
2022/07/25 06:29:26;;;;;;;10.00;9.10;;;29.00;50.60;;;;;;4946441;56;21029;-33
2022/07/25 06:34:26;;;;;;;10.95;9.50;;;29.00;50.60;;;;;;4614986;60;21494;-32
2022/07/25 06:39:27;;;;;;;11.32;10.10;;;29.00;50.60;;;;;;4614954;60;21028;-36
2022/07/25 06:44:31;;;;;;;12.05;10.70;;;29.10;50.70;;;;;;4615110;56;21076;-32
2022/07/25 06:49:31;;;;;;;13.02;10.68;;;29.10;50.50;;;;;;4628947;56;21053;-30
2022/07/25 06:54:32;;;;;;;13.35;11.60;;;29.10;50.50;;;;;;4664029;56;21032;-34
2022/07/25 06:59:33;;;;;;;30.75;23.05;;;29.10;50.50;;;;;;4666464;56;21100;-30
2022/07/25 07:04:34;;;;;;;25.08;21.83;;;29.10;50.80;;;;;;4619947;56;21020;-31
2022/07/25 07:09:35;;;;;;;28.17;23.23;;;29.00;51.00;;;;;;4614878;60;21499;-29
2022/07/25 07:14:38;;;;;;;35.35;27.90;;;29.10;51.20;;;;;;4640566;56;21017;-31
2022/07/25 07:19:43;;;;;;;38.85;31.12;;;29.00;51.30;;;;;;4682604;56;21068;-30
2022/07/25 07:24:44;;;;;;;36.75;28.25;;;29.00;51.00;;;;;;4629494;56;21664;-29
2022/07/25 07:29:44;;;;;;;34.70;24.83;;;29.00;51.00;;;;;;4640072;56;21084;-29
2022/07/25 07:34:45;;;;;;;25.15;22.30;;;29.00;50.80;;;;;;4614453;60;21032;-30
2022/07/25 07:39:46;;;;;;;27.65;23.48;;;29.10;50.70;;;;;;4653649;56;21510;-31
2022/07/25 07:44:47;;;;;;;27.60;23.25;;;29.10;50.80;;;;;;4671176;56;21020;-28
2022/07/25 07:49:48;;;;;;;27.48;23.02;;;29.10;49.50;;;;;;4626690;56;21036;-31
2022/07/25 08:00:09;;;;;;;29.23;23.90;;;29.10;48.10;;;;;;4613673;60;21606;-25
2022/07/25 08:05:10;;;;;;;30.62;23.87;;;29.20;49.00;;;;;;4632445;56;21012;-27
2022/07/25 08:10:11;;;;;;;28.45;23.98;;;29.20;49.00;;;;;;4615501;57;21080;-28
2022/07/25 08:15:11;;;;;;;32.42;25.33;;;29.20;49.40;;;;;;4650483;56;21024;-31
2022/07/25 08:20:13;;;;;;;32.95;25.73;;;29.30;49.30;;;;;;4724550;56;21060;-31
2022/07/25 08:25:19;;;;;;;29.52;25.40;;;29.30;49.50;;;;;;4700935;56;21092;-28
2022/07/25 08:30:21;;;;;;;30.37;27.08;;;29.30;49.40;;;;;;4835048;56;21447;-32
2022/07/25 08:35:24;;;;;;;32.08;27.27;;;29.40;49.10;;;;;;4739864;56;21016;-28
2022/07/25 08:40:27;;;;;;;43.53;29.75;;;29.40;49.30;;;;;;4653024;56;21097;-31
2022/07/25 08:45:28;;;;;;;34.90;27.37;;;29.40;49.30;;;;;;4669268;56;21028;-28
2022/07/25 08:50:29;;;;;;;38.03;28.12;;;29.40;49.10;;;;;;4625072;56;21081;-31
2022/07/25 08:55:30;;;;;;;36.22;29.30;;;29.40;48.90;;;;;;4620866;56;21650;-35
2022/07/25 09:00:31;;;;;;;35.17;29.15;;;29.40;48.70;;;;;;4641874;56;21040;-31
2022/07/25 09:05:33;;;;;;;35.83;28.90;;;29.50;48.70;;;;;;4704908;56;21019;-31
2022/07/25 09:10:35;;;;;;;33.85;27.08;;;29.50;48.60;;;;;;4699479;56;21132;-26
2022/07/25 09:15:38;;;;;;;33.83;26.25;;;29.50;48.50;;;;;;4682157;56;21606;-28
2022/07/25 09:20:57;;;;;;;30.12;25.05;;;29.50;48.40;;;;;;4614129;60;21024;-30
2022/07/25 09:26:10;;;;;;;30.30;24.77;;;29.50;48.70;;;;;;4615093;56;21467;-30
2022/07/25 09:31:12;;;;;;;26.25;23.05;;;29.60;48.50;;;;;;4614496;57;41257;-32
2022/07/25 09:36:14;;;;;;;33.65;23.85;;;29.60;48.80;;;;;;4640900;56;21045;-31
2022/07/25 09:41:15;;;;;;;30.40;24.52;;;29.60;49.00;;;;;;4615250;60;21131;-31
2022/07/25 09:46:16;;;;;;;29.95;24.37;;;29.60;47.30;;;;;;4624734;56;21570;-30
2022/07/25 09:51:17;;;;;;;29.77;24.42;;;29.60;46.80;;;;;;4856973;56;21208;-28
2022/07/25 09:56:18;;;;;;;29.42;23.67;;;29.70;45.40;;;;;;4615345;60;21092;-32
2022/07/25 10:01:24;;;;;;;27.02;22.20;;;29.70;44.30;;;;;;4657902;56;21036;-27
2022/07/25 10:07:26;;;;;;;24.77;21.02;;;29.80;45.20;;;;;;4645197;56;21159;-30
2022/07/25 10:12:27;;;;;;;23.50;18.60;;;29.80;45.60;;;;;;4634408;56;21017;-28
2022/07/25 10:17:28;;;;;;;31.37;22.40;;;29.80;45.20;;;;;;4671433;56;21032;-29
2022/07/25 10:22:47;;;;;;;35.80;27.23;;;29.90;44.40;;;;;;4629634;56;21028;-29
2022/07/25 10:27:51;;;;;;;35.20;27.95;;;30.00;43.40;;;;;;4806647;56;21498;-27
2022/07/25 10:33:10;;;;;;;42.30;30.48;;;29.90;43.10;;;;;;4631957;56;21498;-31
2022/07/25 10:38:11;;;;;;;39.33;30.75;;;30.00;45.00;;;;;;4722994;56;21092;-30
2022/07/25 10:43:21;;;;;;;34.65;25.17;;;30.00;43.80;;;;;;4633155;56;21027;-30
2022/07/25 10:48:31;;;;;;;34.33;25.17;;;30.00;42.70;;;;;;4624782;56;21068;-30
2022/07/25 10:53:52;;;;;;;27.92;22.80;;;30.00;42.30;;;;;;4619524;56;21032;-32
2022/07/25 10:58:59;;;;;;;29.42;22.92;;;30.10;41.80;;;;;;4612300;57;21044;-31
2022/07/25 11:04:02;;;;;;;28.60;22.40;;;30.10;41.40;;;;;;4618319;56;21036;-32
2022/07/25 11:09:16;;;;;;;28.42;23.10;;;30.10;41.80;;;;;;4615440;60;21021;-31
2022/07/25 11:14:40;;;;;;;28.87;24.00;;;30.10;42.20;;;;;;4617156;56;21016;-34
2022/07/25 11:19:53;;;;;;;35.63;25.95;;;30.10;40.90;;;;;;4615697;60;21593;-32
2022/07/25 11:24:55;;;;;;;33.00;25.88;;;30.10;41.00;;;;;;4641504;56;21016;-32
2022/07/25 11:30:13;;;;;;;29.58;24.63;;;30.20;40.60;;;;;;4618116;56;21554;-33
2022/07/25 11:35:14;;;;;;;21.80;17.95;;;30.10;40.80;;;;;;4691901;56;21483;-31
2022/07/25 11:40:19;;;;;;;22.70;18.50;;;30.20;39.60;;;;;;4766400;56;21033;-29
2022/07/25 11:45:28;;;;;;;26.60;20.23;;;30.20;40.00;;;;;;4614822;60;21562;-28
2022/07/25 11:50:30;;;;;;;22.30;18.80;;;30.10;40.40;;;;;;4654478;56;21005;-32
2022/07/25 11:55:36;;;;;;;20.90;17.85;;;30.10;40.80;;;;;;4613704;60;21625;-30
2022/07/25 12:00:45;;;;;;;22.80;18.08;;;30.00;40.90;;;;;;4669098;56;21121;-29
2022/07/25 12:05:47;;;;;;;21.00;17.58;;;30.00;41.00;;;;;;4628327;56;21048;-30
2022/07/25 12:10:50;;;;;;;25.12;19.42;;;30.00;41.20;;;;;;4615627;56;21156;-29
2022/07/25 12:15:51;;;;;;;21.77;18.92;;;30.00;41.30;;;;;;4665328;56;21500;-29
2022/07/25 12:20:52;;;;;;;22.00;18.37;;;30.00;41.40;;;;;;4679063;56;21100;-30
2022/07/25 12:25:53;;;;;;;19.12;16.62;;;30.00;41.60;;;;;;4859613;56;21490;-27
2022/07/25 12:30:54;;;;;;;18.62;16.62;;;30.00;40.80;;;;;;4779777;56;21032;-30
2022/07/25 12:35:55;;;;;;;19.30;16.40;;;30.00;39.30;;;;;;4902724;56;21064;-33
2022/07/25 12:40:56;;;;;;;23.92;18.58;;;30.10;39.70;;;;;;4674151;56;21096;-33
2022/07/25 12:45:57;;;;;;;25.77;21.48;;;30.10;38.50;;;;;;4651074;56;21077;-28
2022/07/25 12:50:57;;;;;;;25.62;21.30;;;30.20;38.70;;;;;;4649725;56;21032;-29
2022/07/25 12:55:58;;;;;;;25.55;20.33;;;30.20;39.10;;;;;;4642398;56;21072;-29
2022/07/25 13:00:59;;;;;;;23.50;16.52;;;30.20;39.10;;;;;;4757469;56;21109;-28
2022/07/25 13:06:00;;;;;;;21.10;16.10;;;30.20;39.00;;;;;;4666237;56;21064;-31
2022/07/25 13:11:01;;;;;;;23.80;21.23;;;30.30;38.30;;;;;;4611948;60;21029;-31
2022/07/25 13:16:02;;;;;;;31.20;24.05;;;30.30;37.60;;;;;;4615894;57;21120;-27
2022/07/25 13:21:03;;;;;;;26.33;21.33;;;30.30;37.30;;;;;;4613236;60;21578;-29
2022/07/25 13:26:04;;;;;;;27.70;23.85;;;30.30;37.60;;;;;;4613308;60;21605;-31
2022/07/25 13:31:06;;;;;;;23.58;21.08;;;30.30;37.70;;;;;;4613019;60;21080;-25
2022/07/25 13:36:08;;;;;;;19.90;17.48;;;30.30;36.90;;;;;;4615869;56;21509;-30
2022/07/25 13:41:09;;;;;;;22.67;17.95;;;30.40;36.90;;;;;;4698749;56;21065;-31
2022/07/25 13:46:10;;;;;;;23.58;18.02;;;30.40;36.50;;;;;;4683762;56;21068;-28
2022/07/25 13:51:11;;;;;;;21.55;18.55;;;30.40;36.20;;;;;;4804512;56;20996;-29
2022/07/25 13:56:12;;;;;;;23.75;18.42;;;30.40;36.70;;;;;;4690664;56;21036;-30
2022/07/25 14:01:13;;;;;;;20.70;17.35;;;30.30;37.20;;;;;;4645345;56;21197;-28
2022/07/25 14:06:14;;;;;;;20.30;18.02;;;30.20;38.40;;;;;;4707904;56;21009;-30
2022/07/25 14:11:15;;;;;;;19.95;17.10;;;30.20;38.30;;;;;;4765326;56;21092;-30
2022/07/25 14:16:19;;;;;;;20.08;17.58;;;30.10;38.40;;;;;;4674821;56;21060;-30
2022/07/25 14:21:19;;;;;;;25.45;18.37;;;30.10;38.70;;;;;;4729205;56;21503;-32
2022/07/25 14:26:20;;;;;;;20.58;17.27;;;30.00;39.00;;;;;;4616321;57;21064;-33
2022/07/25 14:31:22;;;;;;;19.00;16.92;;;30.00;39.20;;;;;;4650721;56;21129;-32
2022/07/25 14:36:23;;;;;;;21.62;17.50;;;30.00;39.50;;;;;;4648490;56;21491;-31
2022/07/25 14:41:24;;;;;;;18.40;16.35;;;29.90;39.70;;;;;;4615512;57;21072;-31
2022/07/25 14:46:24;;;;;;;19.75;17.23;;;29.90;39.80;;;;;;4691565;56;21092;-32
2022/07/25 14:51:25;;;;;;;18.77;16.80;;;29.90;40.20;;;;;;4616053;60;21132;-32
2022/07/25 14:56:26;;;;;;;20.45;17.12;;;29.90;40.20;;;;;;4615967;60;21028;-30
2022/07/25 15:01:27;;;;;;;19.77;16.25;;;29.90;40.50;;;;;;4770846;56;21036;-29
2022/07/25 15:06:28;;;;;;;19.70;16.52;;;29.90;40.60;;;;;;4688141;56;21060;-30
2022/07/25 15:11:28;;;;;;;17.62;15.82;;;29.80;40.80;;;;;;4644380;56;21072;-30
2022/07/25 15:16:29;;;;;;;17.83;15.85;;;29.80;40.90;;;;;;4699345;56;21080;-31
2022/07/25 15:21:30;;;;;;;17.08;15.27;;;29.80;41.10;;;;;;4615497;57;21458;-32
2022/07/25 15:26:32;;;;;;;17.12;15.25;;;29.80;41.20;;;;;;4615746;60;21028;-31
2022/07/25 15:31:32;;;;;;;18.92;16.40;;;29.80;41.30;;;;;;4648824;56;21547;-36
2022/07/25 15:36:33;;;;;;;17.87;16.05;;;29.70;41.30;;;;;;4647850;56;21060;-29
2022/07/25 15:41:34;;;;;;;17.65;15.82;;;29.70;41.40;;;;;;4774281;56;21043;-30
2022/07/25 15:46:38;;;;;;;17.58;15.80;;;29.70;41.60;;;;;;4629960;56;21136;-31
2022/07/25 15:51:39;;;;;;;17.48;15.68;;;29.70;41.60;;;;;;4658995;56;21069;-30
2022/07/25 15:56:40;;;;;;;18.20;15.75;;;29.70;41.70;;;;;;4615994;60;21497;-29
2022/07/25 16:01:42;;;;;;;18.33;15.40;;;29.70;41.90;;;;;;4621913;56;21068;-30
2022/07/25 16:06:43;;;;;;;17.30;15.55;;;29.70;41.90;;;;;;4725357;56;21518;-31
2022/07/25 16:11:44;;;;;;;17.20;15.48;;;29.70;42.00;;;;;;4626554;56;21545;-30
2022/07/25 16:16:45;;;;;;;17.58;15.68;;;29.70;42.10;;;;;;4627940;56;21040;-31
2022/07/25 16:21:45;;;;;;;16.77;15.07;;;29.70;42.20;;;;;;4638361;56;21060;-30
2022/07/25 16:26:47;;;;;;;17.65;15.82;;;29.70;42.30;;;;;;4616485;60;21008;-30
2022/07/25 16:31:48;;;;;;;18.05;15.70;;;29.70;42.40;;;;;;4696222;56;21009;-33
2022/07/25 16:36:49;;;;;;;17.80;15.88;;;29.70;42.50;;;;;;4635777;56;21080;-31
2022/07/25 16:41:50;;;;;;;17.05;15.25;;;29.70;42.50;;;;;;4752213;56;21080;-29
2022/07/25 16:46:51;;;;;;;17.25;15.50;;;29.70;42.60;;;;;;4939052;56;21091;-32
2022/07/25 16:51:53;;;;;;;17.02;15.32;;;29.70;42.70;;;;;;4699415;56;21032;-30
2022/07/25 16:56:54;;;;;;;17.75;15.95;;;29.70;42.70;;;;;;4825422;56;21552;-31
2022/07/25 17:01:55;;;;;;;17.45;15.75;;;29.70;42.80;;;;;;4615455;56;21102;-29
2022/07/25 17:06:56;;;;;;;17.60;15.85;;;29.70;42.80;;;;;;4819533;56;21490;-30
2022/07/25 17:11:57;;;;;;;16.10;14.50;;;29.70;43.00;;;;;;4625275;56;21067;-31
2022/07/25 17:16:57;;;;;;;17.85;15.68;;;29.70;42.90;;;;;;4615986;58;21566;-31
2022/07/25 17:21:58;;;;;;;16.87;15.07;;;29.70;43.00;;;;;;4615416;60;21052;-30
2022/07/25 17:27:00;;;;;;;16.83;15.13;;;29.70;43.10;;;;;;4715348;56;21080;-29
2022/07/25 17:32:01;;;;;;;16.10;14.55;;;29.70;43.10;;;;;;4878679;56;21091;-28
2022/07/25 17:37:04;;;;;;;17.40;15.57;;;29.70;43.20;;;;;;4616221;60;21024;-32
2022/07/25 17:42:06;;;;;;;17.17;15.45;;;29.70;43.30;;;;;;4615772;60;21164;-34
2022/07/25 17:47:07;;;;;;;16.30;14.70;;;29.70;43.30;;;;;;4616127;58;21499;-29
2022/07/25 17:52:11;;;;;;;16.83;14.98;;;29.70;43.30;;;;;;4748977;56;21551;-32
2022/07/25 17:57:12;;;;;;;16.70;15.00;;;29.70;43.40;;;;;;4615978;60;21507;-30
2022/07/25 18:02:13;;;;;;;17.08;15.38;;;29.70;43.40;;;;;;4644183;56;21021;-31
2022/07/25 18:07:13;;;;;;;15.85;14.30;;;29.70;43.50;;;;;;4616268;56;21028;-31
2022/07/25 18:12:14;;;;;;;16.60;15.00;;;29.70;44.10;;;;;;4734009;56;21089;-31
2022/07/25 18:17:15;;;;;;;16.17;14.57;;;29.70;43.60;;;;;;4615879;60;21487;-31
2022/07/25 18:22:16;;;;;;;16.52;14.63;;;29.70;43.60;;;;;;4616126;60;21008;-32
2022/07/25 18:27:17;;;;;;;17.02;15.25;;;29.70;43.60;;;;;;4670441;56;21489;-31
2022/07/25 18:32:18;;;;;;;15.95;14.45;;;29.70;43.70;;;;;;4641013;56;21507;-40
2022/07/25 18:37:20;;;;;;;16.05;14.45;;;29.70;43.80;;;;;;4615682;59;21586;-31
2022/07/25 18:42:21;;;;;;;16.30;14.70;;;29.70;43.90;;;;;;4634445;56;21029;-29
2022/07/25 18:47:24;;;;;;;16.50;14.80;;;29.70;44.50;;;;;;4881000;56;21028;-30
2022/07/25 18:52:25;;;;;;;15.55;13.98;;;29.70;44.00;;;;;;4916174;56;21502;-31
2022/07/25 18:57:28;;;;;;;15.88;14.27;;;29.70;43.90;;;;;;4633860;56;21080;-34
2022/07/25 19:02:30;;;;;;;16.58;14.87;;;29.70;44.00;;;;;;4638530;56;21020;-31
2022/07/25 19:07:31;;;;;;;16.77;15.13;;;29.70;44.10;;;;;;4636061;56;21064;-31
2022/07/25 19:12:32;;;;;;;16.23;14.63;;;29.60;44.00;;;;;;4616241;60;21012;-31
2022/07/25 19:17:35;;;;;;;16.17;14.48;;;29.60;44.10;;;;;;4615723;60;21040;-30
2022/07/25 19:22:36;;;;;;;16.62;14.98;;;29.70;44.20;;;;;;4643697;56;21541;-29
2022/07/25 19:27:38;;;;;;;15.98;14.38;;;29.60;44.10;;;;;;4721844;56;21065;-33
2022/07/25 19:32:39;;;;;;;16.83;15.13;;;29.60;44.20;;;;;;4634624;56;21025;-33
2022/07/25 19:37:40;;;;;;;16.52;14.80;;;29.60;44.20;;;;;;4757314;56;21036;-34
2022/07/25 19:42:41;;;;;;;16.45;14.75;;;29.70;44.30;;;;;;4780239;56;21168;-29
2022/07/25 19:47:42;;;;;;;15.68;14.18;;;29.70;44.30;;;;;;4615887;60;21611;-31
2022/07/25 19:52:43;;;;;;;16.08;14.38;;;29.60;44.30;;;;;;4785829;56;21072;-32
2022/07/25 19:57:44;;;;;;;16.73;15.10;;;29.60;44.30;;;;;;4787613;56;21550;-33
2022/07/25 20:02:44;;;;;;;15.93;14.32;;;29.60;44.30;;;;;;4616099;60;21016;-33
2022/07/25 20:07:45;;;;;;;16.27;14.60;;;29.60;44.40;;;;;;4781932;56;21136;-32
2022/07/25 20:12:46;;;;;;;16.42;14.82;;;29.60;44.30;;;;;;4615893;60;21076;-30
2022/07/25 20:17:47;;;;;;;16.08;14.45;;;29.60;44.40;;;;;;4642057;56;21096;-32
2022/07/25 20:22:48;;;;;;;15.55;13.98;;;29.60;44.50;;;;;;4854195;56;21025;-29
2022/07/25 20:27:48;;;;;;;15.30;13.73;;;29.60;44.40;;;;;;4817047;56;21087;-30
2022/07/25 20:32:51;;;;;;;15.32;13.50;;;29.60;44.50;;;;;;4770380;56;21518;-36
2022/07/25 20:37:52;;;;;;;15.77;14.18;;;29.60;44.50;;;;;;4615740;60;21096;-34
2022/07/25 20:42:54;;;;;;;16.25;14.55;;;29.60;44.50;;;;;;4753384;56;21076;-34
2022/07/25 20:47:55;;;;;;;15.27;13.68;;;29.60;44.50;;;;;;4799981;56;21598;-33
2022/07/25 20:52:56;;;;;;;17.45;14.43;;;29.60;44.50;;;;;;4615932;60;21084;-31
2022/07/25 20:57:59;;;;;;;15.65;14.05;;;29.60;44.50;;;;;;4628562;56;21088;-31
2022/07/25 21:03:00;;;;;;;15.65;13.93;;;29.60;44.60;;;;;;4898207;56;21018;-27
2022/07/25 21:08:00;;;;;;;15.40;13.80;;;29.60;45.20;;;;;;4620397;56;21482;-34
2022/07/25 21:13:02;;;;;;;15.90;14.30;;;29.60;44.70;;;;;;4616177;60;21053;-31
2022/07/25 21:18:03;;;;;;;14.80;13.40;;;29.60;44.60;;;;;;4697023;56;21056;-32
2022/07/25 21:23:04;;;;;;;15.60;14.00;;;29.50;44.50;;;;;;4659581;56;21028;-33
2022/07/25 21:28:05;;;;;;;15.82;13.70;;;29.60;44.60;;;;;;4649210;56;21611;-34
2022/07/25 21:33:06;;;;;;;14.85;13.35;;;29.60;44.60;;;;;;4759685;56;21033;-31
2022/07/25 21:38:07;;;;;;;14.52;13.02;;;29.60;44.60;;;;;;4840350;56;21032;-30
2022/07/25 21:43:07;;;;;;;14.10;12.80;;;29.60;44.60;;;;;;4687187;56;21036;-32
2022/07/25 21:48:08;;;;;;;13.77;12.37;;;29.50;44.70;;;;;;4764285;56;21016;-30
2022/07/25 21:53:11;;;;;;;14.98;12.77;;;29.50;44.60;;;;;;4654210;56;21099;-31
2022/07/25 21:58:12;;;;;;;13.55;12.05;;;29.50;44.50;;;;;;4630972;56;21012;-31
2022/07/25 22:03:13;;;;;;;13.93;12.50;;;29.50;44.70;;;;;;4770178;56;21087;-29
2022/07/25 22:08:14;;;;;;;13.10;11.70;;;29.50;44.80;;;;;;4833972;56;21499;-32
2022/07/25 22:13:15;;;;;;;14.13;12.63;;;29.50;44.90;;;;;;5072234;56;21005;-29
2022/07/25 22:18:16;;;;;;;14.63;11.88;;;29.50;45.00;;;;;;4953122;56;21063;-29
2022/07/25 22:23:17;;;;;;;13.45;11.98;;;29.50;45.00;;;;;;4616243;60;21550;-34
2022/07/25 22:28:19;;;;;;;12.30;11.10;;;29.50;45.20;;;;;;4782459;56;21083;-32
2022/07/25 22:33:20;;;;;;;13.20;11.60;;;29.50;45.20;;;;;;4638896;56;21569;-30
2022/07/25 22:38:21;;;;;;;13.15;11.75;;;29.50;45.30;;;;;;4649827;56;21103;-30
2022/07/25 22:43:22;;;;;;;13.75;11.50;;;29.50;45.30;;;;;;4688863;56;21024;-31
2022/07/25 22:48:23;;;;;;;13.18;11.75;;;29.50;45.30;;;;;;4678588;56;21020;-32
2022/07/25 22:53:24;;;;;;;12.37;11.15;;;29.50;45.50;;;;;;4615903;60;21032;-33
2022/07/25 22:58:26;;;;;;;12.35;11.05;;;29.50;45.50;;;;;;4616250;60;21507;-29
2022/07/25 23:03:27;;;;;;;12.77;11.30;;;29.50;45.50;;;;;;4616266;60;21550;-30
2022/07/25 23:08:28;;;;;;;12.25;11.05;;;29.50;45.90;;;;;;4702203;56;21032;-40
2022/07/25 23:13:29;;;;;;;14.15;11.20;;;29.50;45.70;;;;;;4712528;56;21029;-30
2022/07/25 23:18:30;;;;;;;12.55;11.25;;;29.50;45.50;;;;;;4751303;56;21052;-30
2022/07/25 23:23:31;;;;;;;12.18;10.98;;;29.50;45.60;;;;;;4616314;56;21068;-30
2022/07/25 23:28:32;;;;;;;11.88;10.68;;;29.50;45.90;;;;;;4827614;56;21020;-34
2022/07/25 23:33:33;;;;;;;11.50;10.40;;;29.50;45.90;;;;;;4724498;56;21024;-31
2022/07/25 23:38:34;;;;;;;11.80;10.60;;;29.50;45.90;;;;;;5028747;56;21023;-29
2022/07/25 23:43:34;;;;;;;12.13;10.88;;;29.50;45.80;;;;;;4798497;56;21132;-30
2022/07/25 23:48:35;;;;;;;14.55;11.48;;;29.50;46.00;;;;;;4888845;56;21082;-33
2022/07/25 23:53:36;;;;;;;11.85;10.70;;;29.50;45.90;;;;;;4642968;56;21562;-36
2022/07/25 23:58:37;;;;;;;11.55;10.45;;;29.50;46.20;;;;;;4823480;56;21087;-33
